createdAt,value
2023-04-07T00:00:40.153Z,25.76
2023-04-07T00:01:40.204Z,25.77
2023-04-07T00:02:41.371Z,25.76
2023-04-07T00:03:40.347Z,25.76
2023-04-07T00:04:40.218Z,25.76
2023-04-07T00:05:40.198Z,25.76
2023-04-07T00:06:40.170Z,25.76
2023-04-07T00:07:52.228Z,25.74
2023-04-07T00:08:41.152Z,25.77
2023-04-07T00:09:40.160Z,25.74
2023-04-07T00:10:40.149Z,25.73
2023-04-07T00:11:40.146Z,25.73
2023-04-07T00:12:40.121Z,25.76
2023-04-07T00:13:40.144Z,25.74
2023-04-07T00:14:40.121Z,25.74
2023-04-07T00:15:40.141Z,25.76
2023-04-07T00:16:40.111Z,25.74
2023-04-07T00:17:40.185Z,25.73
2023-04-07T00:18:40.099Z,25.74
2023-04-07T00:19:40.099Z,25.76
2023-04-07T00:20:40.076Z,25.77
2023-04-07T00:21:40.087Z,25.74
2023-04-07T00:22:40.077Z,25.74
2023-04-07T00:23:40.056Z,25.76
2023-04-07T00:24:40.061Z,25.73
2023-04-07T00:25:40.097Z,25.74
2023-04-07T00:26:40.141Z,25.76
2023-04-07T00:27:40.137Z,25.76
2023-04-07T00:28:40.167Z,25.74
2023-04-07T00:29:40.182Z,25.74
2023-04-07T00:30:40.211Z,25.77
2023-04-07T00:31:40.356Z,25.74
2023-04-07T00:32:40.320Z,25.76
2023-04-07T00:33:40.283Z,25.76
2023-04-07T00:34:40.317Z,25.74
2023-04-07T00:35:40.349Z,25.74
2023-04-07T00:36:40.350Z,25.76
2023-04-07T00:37:40.379Z,25.76
2023-04-07T00:38:40.421Z,25.76
2023-04-07T00:39:40.446Z,25.76
2023-04-07T00:40:40.483Z,25.74
2023-04-07T00:41:40.492Z,25.76
2023-04-07T00:42:40.539Z,25.74
2023-04-07T00:43:40.542Z,25.74
2023-04-07T00:44:40.551Z,25.76
2023-04-07T00:45:40.619Z,25.74
2023-04-07T00:46:40.702Z,25.74
2023-04-07T00:47:40.666Z,25.73
2023-04-07T00:48:40.671Z,25.73
2023-04-07T00:49:40.706Z,25.76
2023-04-07T00:50:40.724Z,25.71
2023-04-07T00:51:40.765Z,25.74
2023-04-07T00:52:40.784Z,25.73
2023-04-07T00:53:40.795Z,25.71
2023-04-07T00:54:40.843Z,25.73
2023-04-07T00:55:40.859Z,25.73
2023-04-07T00:56:42.490Z,25.74
2023-04-07T00:57:40.869Z,25.74
2023-04-07T00:58:40.889Z,25.74
2023-04-07T00:59:40.858Z,25.74
2023-04-07T01:00:40.864Z,25.74
2023-04-07T01:01:40.922Z,25.73
2023-04-07T01:02:41.043Z,25.74
2023-04-07T01:03:41.170Z,25.74
2023-04-07T01:04:41.061Z,25.73
2023-04-07T01:05:40.833Z,25.74
2023-04-07T01:06:40.811Z,25.74
2023-04-07T01:07:40.815Z,25.73
2023-04-07T01:08:40.811Z,25.74
2023-04-07T01:09:40.812Z,25.73
2023-04-07T01:10:40.813Z,25.74
2023-04-07T01:11:40.775Z,25.73
2023-04-07T01:12:40.767Z,25.74
2023-04-07T01:13:40.778Z,25.74
2023-04-07T01:14:40.775Z,25.73
2023-04-07T01:15:40.769Z,25.74
2023-04-07T01:16:40.826Z,25.74
2023-04-07T01:17:40.750Z,25.73
2023-04-07T01:18:40.728Z,25.71
2023-04-07T01:19:40.749Z,25.74
2023-04-07T01:20:40.712Z,25.73
2023-04-07T01:21:40.699Z,25.73
2023-04-07T01:22:40.707Z,25.73
2023-04-07T01:23:40.840Z,25.73
2023-04-07T01:24:40.704Z,25.73
2023-04-07T01:25:40.703Z,25.73
2023-04-07T01:26:40.688Z,25.74
2023-04-07T01:27:40.672Z,25.74
2023-04-07T01:28:40.676Z,25.74
2023-04-07T01:29:40.660Z,25.73
2023-04-07T01:30:40.646Z,25.73
2023-04-07T01:31:40.660Z,25.73
2023-04-07T01:32:40.654Z,25.76
2023-04-07T01:33:40.641Z,25.73
2023-04-07T01:34:40.657Z,25.71
2023-04-07T01:35:40.612Z,25.73
2023-04-07T01:36:40.684Z,25.74
2023-04-07T01:37:40.618Z,25.73
2023-04-07T01:38:40.621Z,25.74
2023-04-07T01:39:40.612Z,25.73
2023-04-07T01:40:40.589Z,25.73
2023-04-07T01:41:40.606Z,25.73
2023-04-07T01:42:40.576Z,25.74
2023-04-07T01:43:41.665Z,25.74
2023-04-07T01:44:40.570Z,25.74
2023-04-07T01:45:40.561Z,25.74
2023-04-07T01:46:40.613Z,25.73
2023-04-07T01:47:40.558Z,25.74
2023-04-07T01:48:40.585Z,25.73
2023-04-07T01:49:40.508Z,25.73
2023-04-07T01:50:40.515Z,25.74
2023-04-07T01:51:40.519Z,25.73
2023-04-07T01:52:40.521Z,25.71
2023-04-07T01:53:40.521Z,25.74
2023-04-07T01:54:40.493Z,25.73
2023-04-07T01:55:40.491Z,25.74
2023-04-07T01:56:40.507Z,25.73
2023-04-07T01:57:40.463Z,25.73
2023-04-07T01:58:40.467Z,25.73
2023-04-07T01:59:40.482Z,25.73
2023-04-07T02:00:40.455Z,25.73
2023-04-07T02:01:40.932Z,25.71
2023-04-07T02:02:40.711Z,25.74
2023-04-07T02:03:40.678Z,25.74
2023-04-07T02:04:40.604Z,25.70
2023-04-07T02:05:40.617Z,25.73
2023-04-07T02:06:40.617Z,25.73
2023-04-07T02:07:40.662Z,25.73
2023-04-07T02:08:40.669Z,25.71
2023-04-07T02:09:40.691Z,25.73
2023-04-07T02:10:40.739Z,25.73
2023-04-07T02:11:40.758Z,25.73
2023-04-07T02:12:40.800Z,25.71
2023-04-07T02:13:40.832Z,25.71
2023-04-07T02:14:40.836Z,25.73
2023-04-07T02:15:40.871Z,25.73
2023-04-07T02:16:40.962Z,25.71
2023-04-07T02:17:40.956Z,25.73
2023-04-07T02:18:40.971Z,25.71
2023-04-07T02:19:40.980Z,25.73
2023-04-07T02:20:41.017Z,25.70
2023-04-07T02:21:41.034Z,25.74
2023-04-07T02:22:41.067Z,25.73
2023-04-07T02:23:41.120Z,25.70
2023-04-07T02:24:41.126Z,25.74
2023-04-07T02:25:41.171Z,25.74
2023-04-07T02:26:41.190Z,25.74
2023-04-07T02:27:41.201Z,25.76
2023-04-07T02:28:41.236Z,25.73
2023-04-07T02:29:41.313Z,25.76
2023-04-07T02:30:41.309Z,25.74
2023-04-07T02:31:41.366Z,25.73
2023-04-07T02:32:41.470Z,25.76
2023-04-07T02:33:41.422Z,25.71
2023-04-07T02:34:41.412Z,25.71
2023-04-07T02:35:41.449Z,25.76
2023-04-07T02:36:41.549Z,25.73
2023-04-07T02:37:41.523Z,25.71
2023-04-07T02:38:41.546Z,25.74
2023-04-07T02:39:41.563Z,25.70
2023-04-07T02:40:41.596Z,25.71
2023-04-07T02:41:41.615Z,25.71
2023-04-07T02:42:41.674Z,25.71
2023-04-07T02:43:41.671Z,25.74
2023-04-07T02:44:41.698Z,25.71
2023-04-07T02:45:41.760Z,25.73
2023-04-07T02:46:41.761Z,25.73
2023-04-07T02:47:41.812Z,25.71
2023-04-07T02:48:41.834Z,25.73
2023-04-07T02:49:41.839Z,25.73
2023-04-07T02:50:41.883Z,25.73
2023-04-07T02:51:41.906Z,25.73
2023-04-07T02:52:41.952Z,25.71
2023-04-07T02:53:41.968Z,25.71
2023-04-07T02:54:42.010Z,25.73
2023-04-07T02:55:42.026Z,25.71
2023-04-07T02:56:42.060Z,25.71
2023-04-07T02:57:42.090Z,25.74
2023-04-07T02:58:42.126Z,25.71
2023-04-07T02:59:42.155Z,25.71
2023-04-07T03:00:42.231Z,25.74
2023-04-07T03:01:42.309Z,25.70
2023-04-07T03:02:42.364Z,25.73
2023-04-07T03:03:42.403Z,25.71
2023-04-07T03:04:42.328Z,25.71
2023-04-07T03:05:42.339Z,25.74
2023-04-07T03:06:42.380Z,25.71
2023-04-07T03:07:42.388Z,25.71
2023-04-07T03:08:42.421Z,25.73
2023-04-07T03:09:42.467Z,25.71
2023-04-07T03:10:42.500Z,25.71
2023-04-07T03:11:42.492Z,25.73
2023-04-07T03:12:42.522Z,25.74
2023-04-07T03:13:42.555Z,25.71
2023-04-07T03:14:42.580Z,25.73
2023-04-07T03:15:42.634Z,25.70
2023-04-07T03:16:42.684Z,25.71
2023-04-07T03:17:42.719Z,25.71
2023-04-07T03:18:42.703Z,25.73
2023-04-07T03:19:42.735Z,25.71
2023-04-07T03:20:42.738Z,25.73
2023-04-07T03:21:42.782Z,25.71
2023-04-07T03:22:42.808Z,25.70
2023-04-07T03:23:42.817Z,25.70
2023-04-07T03:24:42.838Z,25.73
2023-04-07T03:25:42.898Z,25.71
2023-04-07T03:26:42.907Z,25.71
2023-04-07T03:27:42.934Z,25.73
2023-04-07T03:28:42.946Z,25.71
2023-04-07T03:29:42.986Z,25.73
2023-04-07T03:30:43.027Z,25.71
2023-04-07T03:31:43.062Z,25.71
2023-04-07T03:32:43.089Z,25.71
2023-04-07T03:33:43.078Z,25.69
2023-04-07T03:34:43.100Z,25.70
2023-04-07T03:35:43.165Z,25.71
2023-04-07T03:36:43.146Z,25.70
2023-04-07T03:37:43.171Z,25.71
2023-04-07T03:38:43.197Z,25.73
2023-04-07T03:39:43.227Z,25.73
2023-04-07T03:40:43.238Z,25.71
2023-04-07T03:41:43.270Z,25.73
2023-04-07T03:42:43.280Z,25.71
2023-04-07T03:43:43.304Z,25.71
2023-04-07T03:44:43.332Z,25.71
2023-04-07T03:45:43.361Z,25.70
2023-04-07T03:46:43.434Z,25.71
2023-04-07T03:47:43.420Z,25.70
2023-04-07T03:48:43.418Z,25.71
2023-04-07T03:49:43.442Z,25.71
2023-04-07T03:50:43.468Z,25.69
2023-04-07T03:51:43.509Z,25.70
2023-04-07T03:52:43.511Z,25.73
2023-04-07T03:53:43.536Z,25.73
2023-04-07T03:54:43.574Z,25.69
2023-04-07T03:55:43.601Z,25.71
2023-04-07T03:56:43.606Z,25.71
2023-04-07T03:57:43.659Z,25.71
2023-04-07T03:58:43.697Z,25.71
2023-04-07T03:59:43.710Z,25.71
2023-04-07T04:00:43.727Z,25.70
2023-04-07T04:01:43.779Z,25.69
2023-04-07T04:02:43.915Z,25.70
2023-04-07T04:03:44.045Z,25.69
2023-04-07T04:04:43.865Z,25.70
2023-04-07T04:05:43.827Z,25.71
2023-04-07T04:06:43.876Z,25.73
2023-04-07T04:07:43.880Z,25.69
2023-04-07T04:08:43.918Z,25.70
2023-04-07T04:09:43.934Z,25.70
2023-04-07T04:10:43.971Z,25.71
2023-04-07T04:11:43.976Z,25.70
2023-04-07T04:12:43.993Z,25.70
2023-04-07T04:13:44.031Z,25.71
2023-04-07T04:14:44.050Z,25.70
2023-04-07T04:15:44.097Z,25.73
2023-04-07T04:16:44.101Z,25.71
2023-04-07T04:17:44.149Z,25.73
2023-04-07T04:18:44.148Z,25.70
2023-04-07T04:19:44.156Z,25.70
2023-04-07T04:20:44.185Z,25.71
2023-04-07T04:21:44.218Z,25.69
2023-04-07T04:22:44.224Z,25.71
2023-04-07T04:23:44.253Z,25.69
2023-04-07T04:24:44.291Z,25.70
2023-04-07T04:25:44.328Z,25.73
2023-04-07T04:26:44.355Z,25.73
2023-04-07T04:27:44.378Z,25.70
2023-04-07T04:28:44.390Z,25.70
2023-04-07T04:29:44.428Z,25.73
2023-04-07T04:30:44.483Z,25.71
2023-04-07T04:31:44.630Z,25.69
2023-04-07T04:32:44.619Z,25.69
2023-04-07T04:33:44.565Z,25.67
2023-04-07T04:34:44.592Z,25.70
2023-04-07T04:35:44.616Z,25.74
2023-04-07T04:36:44.683Z,25.73
2023-04-07T04:37:44.656Z,25.71
2023-04-07T04:38:44.684Z,25.70
2023-04-07T04:39:44.701Z,25.69
2023-04-07T04:40:44.738Z,25.71
2023-04-07T04:41:44.775Z,25.69
2023-04-07T04:42:44.800Z,25.73
2023-04-07T04:43:45.276Z,25.73
2023-04-07T04:44:44.855Z,25.71
2023-04-07T04:45:44.856Z,25.70
2023-04-07T04:46:44.931Z,25.73
2023-04-07T04:47:44.965Z,25.71
2023-04-07T04:48:44.929Z,25.73
2023-04-07T04:49:44.957Z,25.70
2023-04-07T04:50:44.997Z,25.70
2023-04-07T04:51:44.999Z,25.71
2023-04-07T04:52:45.038Z,25.70
2023-04-07T04:53:45.055Z,25.70
2023-04-07T04:54:45.082Z,25.73
2023-04-07T04:55:45.105Z,25.70
2023-04-07T04:56:45.117Z,25.71
2023-04-07T04:57:45.172Z,25.69
2023-04-07T04:58:45.153Z,25.73
2023-04-07T04:59:45.191Z,25.71
2023-04-07T05:00:45.278Z,25.73
2023-04-07T05:01:45.275Z,25.71
2023-04-07T05:02:45.532Z,25.73
2023-04-07T05:03:45.341Z,25.73
2023-04-07T05:04:45.542Z,25.73
2023-04-07T05:05:45.349Z,25.73
2023-04-07T05:06:45.350Z,25.73
2023-04-07T05:07:45.393Z,25.71
2023-04-07T05:08:45.400Z,25.71
2023-04-07T05:09:45.406Z,25.73
2023-04-07T05:10:46.689Z,25.76
2023-04-07T05:11:45.493Z,25.74
2023-04-07T05:12:45.505Z,25.73
2023-04-07T05:13:45.513Z,25.74
2023-04-07T05:14:45.560Z,25.73
2023-04-07T05:15:45.606Z,25.73
2023-04-07T05:16:45.586Z,25.73
2023-04-07T05:17:45.685Z,25.71
2023-04-07T05:18:45.653Z,25.71
2023-04-07T05:19:45.654Z,25.74
2023-04-07T05:20:45.702Z,25.74
2023-04-07T05:21:45.704Z,25.71
2023-04-07T05:22:45.703Z,25.76
2023-04-07T05:23:45.719Z,25.73
2023-04-07T05:24:45.790Z,25.73
2023-04-07T05:25:45.751Z,25.73
2023-04-07T05:26:45.790Z,25.73
2023-04-07T05:27:45.820Z,25.71
2023-04-07T05:28:45.798Z,25.74
2023-04-07T05:29:45.821Z,25.73
2023-04-07T05:30:45.848Z,25.71
2023-04-07T05:31:45.927Z,25.73
2023-04-07T05:32:45.952Z,25.74
2023-04-07T05:33:45.906Z,25.74
2023-04-07T05:34:45.924Z,25.73
2023-04-07T05:35:45.990Z,25.73
2023-04-07T05:36:45.993Z,25.73
2023-04-07T05:37:46.019Z,25.73
2023-04-07T05:38:46.046Z,25.74
2023-04-07T05:39:46.080Z,25.74
2023-04-07T05:40:46.093Z,25.74
2023-04-07T05:41:46.112Z,25.73
2023-04-07T05:42:46.157Z,25.76
2023-04-07T05:43:46.175Z,25.71
2023-04-07T05:44:46.194Z,25.73
2023-04-07T05:45:46.280Z,25.73
2023-04-07T05:46:46.235Z,25.73
2023-04-07T05:47:46.313Z,25.76
2023-04-07T05:48:46.306Z,25.76
2023-04-07T05:49:46.306Z,25.74
2023-04-07T05:50:46.368Z,25.74
2023-04-07T05:51:47.466Z,25.73
2023-04-07T05:52:46.397Z,25.76
2023-04-07T05:53:46.429Z,25.71
2023-04-07T05:54:46.437Z,25.71
2023-04-07T05:55:46.494Z,25.76
2023-04-07T05:56:46.508Z,25.74
2023-04-07T05:57:46.526Z,25.74
2023-04-07T05:58:46.522Z,25.76
2023-04-07T05:59:46.534Z,25.74
2023-04-07T06:00:46.565Z,25.74
2023-04-07T06:01:46.720Z,25.76
2023-04-07T06:02:46.776Z,25.76
2023-04-07T06:03:46.824Z,25.73
2023-04-07T06:04:46.675Z,25.77
2023-04-07T06:05:46.711Z,25.74
2023-04-07T06:06:46.740Z,25.76
2023-04-07T06:07:46.734Z,25.76
2023-04-07T06:08:46.790Z,25.76
2023-04-07T06:09:46.788Z,25.76
2023-04-07T06:10:46.825Z,25.73
2023-04-07T06:11:46.855Z,25.76
2023-04-07T06:12:46.876Z,25.76
2023-04-07T06:13:47.184Z,25.76
2023-04-07T06:14:46.907Z,25.74
2023-04-07T06:15:46.929Z,25.76
2023-04-07T06:16:47.029Z,25.74
2023-04-07T06:17:47.060Z,25.74
2023-04-07T06:18:47.039Z,25.76
2023-04-07T06:19:47.034Z,25.74
2023-04-07T06:20:47.048Z,25.76
2023-04-07T06:21:47.069Z,25.77
2023-04-07T06:22:47.094Z,25.74
2023-04-07T06:23:47.471Z,25.76
2023-04-07T06:24:47.153Z,25.77
2023-04-07T06:25:47.187Z,25.77
2023-04-07T06:26:47.209Z,25.77
2023-04-07T06:27:47.215Z,25.76
2023-04-07T06:28:47.236Z,25.76
2023-04-07T06:29:47.267Z,25.74
2023-04-07T06:30:47.378Z,25.76
2023-04-07T06:31:47.321Z,25.79
2023-04-07T06:32:47.351Z,25.77
2023-04-07T06:33:47.612Z,25.79
2023-04-07T06:34:47.400Z,25.79
2023-04-07T06:35:47.428Z,25.79
2023-04-07T06:36:47.503Z,25.77
2023-04-07T06:37:47.458Z,25.79
2023-04-07T06:38:47.485Z,25.80
2023-04-07T06:39:47.506Z,25.77
2023-04-07T06:40:47.519Z,25.79
2023-04-07T06:41:47.536Z,25.80
2023-04-07T06:42:47.569Z,25.79
2023-04-07T06:43:48.208Z,25.81
2023-04-07T06:44:47.602Z,25.81
2023-04-07T06:45:47.695Z,25.83
2023-04-07T06:46:47.668Z,25.81
2023-04-07T06:47:47.691Z,25.84
2023-04-07T06:48:47.694Z,25.83
2023-04-07T06:49:47.718Z,25.81
2023-04-07T06:50:47.744Z,25.84
2023-04-07T06:51:47.768Z,25.83
2023-04-07T06:52:47.790Z,25.84
2023-04-07T06:53:47.952Z,25.85
2023-04-07T06:54:47.822Z,25.85
2023-04-07T06:55:47.834Z,25.85
2023-04-07T06:56:47.853Z,25.84
2023-04-07T06:57:47.891Z,25.84
2023-04-07T06:58:47.908Z,25.88
2023-04-07T06:59:47.930Z,25.88
2023-04-07T07:00:47.963Z,25.91
2023-04-07T07:01:48.051Z,25.90
2023-04-07T07:02:48.136Z,25.90
2023-04-07T07:03:48.371Z,25.91
2023-04-07T07:04:48.061Z,25.95
2023-04-07T07:05:49.508Z,25.94
2023-04-07T07:06:48.097Z,25.94
2023-04-07T07:07:48.115Z,25.97
2023-04-07T07:08:48.129Z,25.98
2023-04-07T07:09:48.173Z,26.00
2023-04-07T07:10:48.228Z,26.00
2023-04-07T07:11:48.196Z,26.04
2023-04-07T07:12:48.232Z,26.03
2023-04-07T07:13:48.340Z,26.05
2023-04-07T07:14:48.268Z,26.08
2023-04-07T07:15:48.354Z,26.08
2023-04-07T07:16:48.313Z,26.07
2023-04-07T07:17:48.425Z,26.11
2023-04-07T07:18:48.367Z,26.13
2023-04-07T07:19:48.359Z,26.13
2023-04-07T07:20:48.381Z,26.14
2023-04-07T07:21:48.400Z,26.14
2023-04-07T07:22:48.426Z,26.18
2023-04-07T07:23:48.862Z,26.17
2023-04-07T07:24:48.427Z,26.18
2023-04-07T07:25:48.451Z,26.18
2023-04-07T07:26:48.449Z,26.23
2023-04-07T07:27:48.474Z,26.23
2023-04-07T07:28:48.495Z,26.24
2023-04-07T07:29:48.478Z,26.28
2023-04-07T07:30:48.580Z,26.28
2023-04-07T07:31:48.488Z,26.31
2023-04-07T07:32:48.536Z,26.32
2023-04-07T07:33:48.620Z,26.37
2023-04-07T07:34:48.489Z,26.44
2023-04-07T07:35:48.508Z,26.45
2023-04-07T07:36:48.473Z,26.49
2023-04-07T07:37:48.485Z,26.52
2023-04-07T07:38:48.498Z,26.55
2023-04-07T07:39:48.474Z,26.59
2023-04-07T07:40:48.501Z,26.58
2023-04-07T07:41:48.490Z,26.62
2023-04-07T07:42:48.494Z,26.62
2023-04-07T07:43:48.780Z,26.63
2023-04-07T07:44:48.810Z,26.65
2023-04-07T07:45:48.576Z,26.66
2023-04-07T07:46:48.707Z,26.68
2023-04-07T07:47:48.778Z,26.71
2023-04-07T07:48:48.677Z,26.71
2023-04-07T07:49:48.750Z,26.74
2023-04-07T07:50:48.818Z,26.72
2023-04-07T07:51:48.846Z,26.76
2023-04-07T07:52:48.919Z,26.82
2023-04-07T07:53:49.216Z,26.82
2023-04-07T07:54:49.040Z,26.85
2023-04-07T07:55:49.112Z,26.85
2023-04-07T07:56:49.171Z,26.89
2023-04-07T07:57:49.227Z,26.93
2023-04-07T07:58:49.304Z,26.93
2023-04-07T07:59:49.336Z,26.95
2023-04-07T08:00:49.425Z,26.95
2023-04-07T08:01:49.472Z,26.96
2023-04-07T08:02:49.612Z,26.99
2023-04-07T08:03:49.987Z,26.99
2023-04-07T08:04:49.645Z,27.03
2023-04-07T08:05:49.655Z,27.06
2023-04-07T08:06:49.697Z,27.10
2023-04-07T08:07:49.756Z,27.12
2023-04-07T08:08:49.782Z,27.14
2023-04-07T08:09:49.835Z,27.17
2023-04-07T08:10:49.876Z,27.20
2023-04-07T08:11:49.913Z,27.23
2023-04-07T08:12:49.924Z,27.28
2023-04-07T08:13:50.205Z,27.30
2023-04-07T08:14:49.995Z,27.33
2023-04-07T08:15:50.037Z,27.36
2023-04-07T08:16:50.051Z,27.42
2023-04-07T08:17:50.086Z,27.44
2023-04-07T08:18:50.199Z,27.49
2023-04-07T08:19:50.098Z,27.53
2023-04-07T08:20:50.119Z,27.54
2023-04-07T08:21:50.118Z,27.53
2023-04-07T08:22:50.121Z,27.44
2023-04-07T08:23:50.447Z,27.43
2023-04-07T08:24:50.311Z,27.43
2023-04-07T08:25:50.178Z,27.39
2023-04-07T08:26:50.204Z,27.37
2023-04-07T08:27:50.247Z,27.36
2023-04-07T08:28:50.279Z,27.32
2023-04-07T08:29:50.316Z,27.32
2023-04-07T08:30:50.330Z,27.29
2023-04-07T08:31:50.386Z,27.30
2023-04-07T08:32:50.381Z,27.28
2023-04-07T08:33:50.613Z,27.23
2023-04-07T08:34:50.446Z,27.25
2023-04-07T08:35:50.522Z,27.23
2023-04-07T08:36:50.535Z,27.20
2023-04-07T08:37:50.579Z,27.19
2023-04-07T08:38:50.576Z,27.17
2023-04-07T08:39:50.629Z,27.16
2023-04-07T08:40:50.657Z,27.14
2023-04-07T08:41:50.704Z,27.13
2023-04-07T08:42:50.761Z,27.12
2023-04-07T08:43:50.811Z,27.13
2023-04-07T08:44:50.831Z,27.09
2023-04-07T08:45:53.103Z,27.09
2023-04-07T08:46:50.856Z,27.09
2023-04-07T08:47:50.915Z,27.07
2023-04-07T08:48:50.823Z,27.03
2023-04-07T08:49:50.799Z,27.05
2023-04-07T08:50:50.794Z,27.02
2023-04-07T08:51:50.800Z,27.02
2023-04-07T08:52:50.784Z,26.99
2023-04-07T08:53:50.775Z,26.99
2023-04-07T08:54:50.774Z,26.99
2023-04-07T08:55:50.775Z,26.98
2023-04-07T08:56:50.787Z,26.96
2023-04-07T08:57:50.745Z,26.95
2023-04-07T08:58:50.739Z,26.95
2023-04-07T08:59:50.739Z,26.96
2023-04-07T09:00:50.790Z,26.92
2023-04-07T09:01:50.753Z,26.92
2023-04-07T09:02:50.798Z,26.92
2023-04-07T09:03:51.058Z,26.90
2023-04-07T09:04:50.695Z,26.90
2023-04-07T09:05:50.694Z,26.88
2023-04-07T09:06:50.688Z,26.89
2023-04-07T09:07:50.694Z,26.86
2023-04-07T09:08:50.689Z,26.83
2023-04-07T09:09:50.669Z,26.85
2023-04-07T09:10:50.675Z,26.86
2023-04-07T09:11:50.661Z,26.83
2023-04-07T09:12:50.668Z,26.83
2023-04-07T09:13:50.661Z,26.83
2023-04-07T09:14:50.648Z,26.83
2023-04-07T09:15:50.630Z,26.81
2023-04-07T09:16:50.681Z,26.79
2023-04-07T09:17:50.634Z,26.81
2023-04-07T09:18:50.626Z,26.79
2023-04-07T09:19:50.615Z,26.79
2023-04-07T09:20:50.623Z,26.79
2023-04-07T09:21:50.586Z,26.76
2023-04-07T09:22:50.615Z,26.75
2023-04-07T09:23:50.734Z,26.76
2023-04-07T09:24:50.581Z,26.75
2023-04-07T09:25:50.574Z,26.76
2023-04-07T09:26:50.581Z,26.75
2023-04-07T09:27:50.625Z,26.75
2023-04-07T09:28:50.706Z,26.74
2023-04-07T09:29:50.743Z,26.74
2023-04-07T09:30:50.809Z,26.72
2023-04-07T09:31:50.891Z,26.72
2023-04-07T09:32:50.970Z,26.74
2023-04-07T09:33:50.966Z,26.72
2023-04-07T09:34:51.056Z,26.72
2023-04-07T09:35:51.158Z,26.71
2023-04-07T09:36:51.178Z,26.71
2023-04-07T09:37:51.256Z,26.69
2023-04-07T09:38:51.317Z,26.68
2023-04-07T09:39:51.358Z,26.68
2023-04-07T09:40:51.413Z,26.66
2023-04-07T09:41:51.481Z,26.71
2023-04-07T09:42:51.554Z,26.66
2023-04-07T09:43:51.613Z,26.65
2023-04-07T09:44:51.673Z,26.66
2023-04-07T09:45:51.788Z,26.66
2023-04-07T09:46:51.817Z,26.68
2023-04-07T09:47:52.002Z,26.68
2023-04-07T09:48:51.935Z,26.66
2023-04-07T09:49:52.006Z,26.65
2023-04-07T09:50:52.127Z,26.66
2023-04-07T09:51:52.136Z,26.65
2023-04-07T09:52:52.203Z,26.66
2023-04-07T09:53:52.326Z,26.63
2023-04-07T09:54:52.303Z,26.63
2023-04-07T09:55:52.391Z,26.65
2023-04-07T09:56:52.435Z,26.63
2023-04-07T09:57:52.508Z,26.63
2023-04-07T09:58:52.561Z,26.62
2023-04-07T09:59:52.605Z,26.62
2023-04-07T10:00:52.670Z,26.62
2023-04-07T10:01:54.395Z,26.62
2023-04-07T10:02:52.895Z,26.62
2023-04-07T10:03:52.719Z,26.59
2023-04-07T10:04:52.669Z,26.59
2023-04-07T10:05:52.653Z,26.59
2023-04-07T10:06:52.649Z,26.60
2023-04-07T10:07:52.661Z,26.59
2023-04-07T10:08:52.637Z,26.59
2023-04-07T10:09:52.632Z,26.60
2023-04-07T10:10:52.643Z,26.59
2023-04-07T10:11:52.624Z,26.60
2023-04-07T10:12:52.643Z,26.58
2023-04-07T10:13:52.622Z,26.58
2023-04-07T10:14:52.626Z,26.56
2023-04-07T10:15:52.621Z,26.58
2023-04-07T10:16:52.618Z,26.56
2023-04-07T10:17:52.609Z,26.58
2023-04-07T10:18:52.593Z,26.55
2023-04-07T10:19:52.582Z,26.56
2023-04-07T10:20:52.576Z,26.56
2023-04-07T10:21:52.573Z,26.56
2023-04-07T10:22:52.591Z,26.54
2023-04-07T10:23:52.559Z,26.52
2023-04-07T10:24:52.565Z,26.54
2023-04-07T10:25:52.672Z,26.54
2023-04-07T10:26:52.549Z,26.51
2023-04-07T10:27:52.535Z,26.51
2023-04-07T10:28:52.532Z,26.51
2023-04-07T10:29:52.547Z,26.51
2023-04-07T10:30:52.560Z,26.51
2023-04-07T10:31:52.483Z,26.52
2023-04-07T10:32:52.551Z,26.55
2023-04-07T10:33:52.868Z,26.54
2023-04-07T10:34:52.491Z,26.56
2023-04-07T10:35:52.502Z,26.55
2023-04-07T10:36:52.465Z,26.55
2023-04-07T10:37:52.527Z,26.55
2023-04-07T10:38:52.463Z,26.54
2023-04-07T10:39:52.451Z,26.56
2023-04-07T10:40:52.442Z,26.56
2023-04-07T10:41:52.420Z,26.56
2023-04-07T10:42:52.413Z,26.58
2023-04-07T10:43:52.416Z,26.58
2023-04-07T10:44:52.434Z,26.60
2023-04-07T10:45:52.478Z,26.58
2023-04-07T10:46:52.410Z,26.55
2023-04-07T10:47:52.501Z,26.56
2023-04-07T10:48:52.380Z,26.55
2023-04-07T10:49:52.356Z,26.56
2023-04-07T10:50:52.379Z,26.52
2023-04-07T10:51:52.375Z,26.55
2023-04-07T10:52:52.365Z,26.55
2023-04-07T10:53:52.468Z,26.54
2023-04-07T10:54:52.321Z,26.54
2023-04-07T10:55:52.317Z,26.56
2023-04-07T10:56:52.331Z,26.54
2023-04-07T10:57:52.320Z,26.55
2023-04-07T10:58:52.314Z,26.54
2023-04-07T10:59:52.298Z,26.54
2023-04-07T11:00:52.309Z,26.54
2023-04-07T11:01:52.340Z,26.56
2023-04-07T11:02:52.386Z,26.59
2023-04-07T11:03:52.475Z,26.59
2023-04-07T11:04:52.319Z,26.59
2023-04-07T11:05:52.264Z,26.63
2023-04-07T11:06:52.311Z,26.63
2023-04-07T11:07:52.368Z,26.63
2023-04-07T11:08:52.428Z,26.65
2023-04-07T11:09:52.446Z,26.65
2023-04-07T11:10:52.501Z,26.66
2023-04-07T11:11:52.547Z,26.68
2023-04-07T11:12:52.581Z,26.72
2023-04-07T11:13:52.684Z,26.74
2023-04-07T11:14:52.715Z,26.75
2023-04-07T11:15:52.823Z,26.78
2023-04-07T11:16:52.821Z,26.81
2023-04-07T11:17:52.915Z,26.83
2023-04-07T11:18:52.962Z,26.85
2023-04-07T11:19:53.012Z,26.85
2023-04-07T11:20:53.085Z,26.88
2023-04-07T11:21:53.132Z,26.89
2023-04-07T11:22:53.229Z,26.88
2023-04-07T11:23:53.263Z,26.83
2023-04-07T11:24:53.300Z,26.81
2023-04-07T11:25:53.384Z,26.78
2023-04-07T11:26:53.429Z,26.78
2023-04-07T11:27:53.492Z,26.76
2023-04-07T11:28:53.558Z,26.75
2023-04-07T11:29:53.610Z,26.75
2023-04-07T11:30:53.695Z,26.78
2023-04-07T11:31:53.796Z,26.76
2023-04-07T11:32:53.797Z,26.75
2023-04-07T11:33:53.873Z,26.75
2023-04-07T11:34:53.908Z,26.71
2023-04-07T11:35:54.014Z,26.69
2023-04-07T11:36:54.022Z,26.69
2023-04-07T11:37:54.101Z,26.68
2023-04-07T11:38:54.163Z,26.68
2023-04-07T11:39:54.236Z,26.66
2023-04-07T11:40:54.282Z,26.63
2023-04-07T11:41:54.356Z,26.66
2023-04-07T11:42:54.405Z,26.65
2023-04-07T11:43:54.466Z,26.65
2023-04-07T11:44:54.506Z,26.63
2023-04-07T11:45:54.629Z,26.62
2023-04-07T11:46:54.718Z,26.63
2023-04-07T11:47:54.712Z,26.63
2023-04-07T11:48:54.718Z,26.62
2023-04-07T11:49:54.755Z,26.60
2023-04-07T11:50:54.796Z,26.62
2023-04-07T11:51:54.823Z,26.60
2023-04-07T11:52:54.905Z,26.59
2023-04-07T11:53:54.892Z,26.59
2023-04-07T11:54:54.911Z,26.62
2023-04-07T11:55:54.964Z,26.60
2023-04-07T11:56:54.964Z,26.59
2023-04-07T11:57:54.980Z,26.56
2023-04-07T11:58:55.023Z,26.58
2023-04-07T11:59:55.065Z,26.55
2023-04-07T12:00:55.121Z,26.56
2023-04-07T12:01:57.708Z,26.55
2023-04-07T12:02:55.316Z,26.56
2023-04-07T12:03:55.231Z,26.55
2023-04-07T12:04:55.205Z,26.55
2023-04-07T12:05:55.124Z,26.52
2023-04-07T12:06:55.127Z,26.52
2023-04-07T12:07:55.102Z,26.52
2023-04-07T12:08:55.100Z,26.54
2023-04-07T12:09:55.076Z,26.51
2023-04-07T12:10:55.084Z,26.51
2023-04-07T12:11:55.063Z,26.51
2023-04-07T12:12:55.532Z,26.55
2023-04-07T12:13:55.063Z,26.55
2023-04-07T12:14:55.060Z,26.56
2023-04-07T12:15:55.074Z,26.56
2023-04-07T12:16:55.150Z,26.58
2023-04-07T12:17:55.076Z,26.58
2023-04-07T12:18:55.036Z,26.56
2023-04-07T12:19:55.032Z,26.58
2023-04-07T12:20:55.035Z,26.60
2023-04-07T12:21:55.022Z,26.59
2023-04-07T12:22:55.004Z,26.59
2023-04-07T12:23:55.002Z,26.59
2023-04-07T12:24:54.997Z,26.59
2023-04-07T12:25:54.996Z,26.60
2023-04-07T12:26:54.978Z,26.63
2023-04-07T12:27:54.977Z,26.62
2023-04-07T12:28:55.012Z,26.60
2023-04-07T12:29:54.956Z,26.62
2023-04-07T12:30:54.996Z,26.63
2023-04-07T12:31:55.013Z,26.60
2023-04-07T12:32:55.016Z,26.62
2023-04-07T12:33:55.024Z,26.63
2023-04-07T12:34:55.087Z,26.65
2023-04-07T12:35:55.209Z,26.63
2023-04-07T12:36:55.221Z,26.63
2023-04-07T12:37:55.283Z,26.62
2023-04-07T12:38:55.333Z,26.65
2023-04-07T12:39:55.396Z,26.65
2023-04-07T12:40:55.456Z,26.65
2023-04-07T12:41:55.543Z,26.65
2023-04-07T12:42:55.600Z,26.66
2023-04-07T12:43:55.658Z,26.65
2023-04-07T12:44:55.707Z,26.63
2023-04-07T12:45:55.785Z,26.65
2023-04-07T12:46:55.831Z,26.68
2023-04-07T12:47:55.951Z,26.65
2023-04-07T12:48:55.957Z,26.65
2023-04-07T12:49:56.026Z,26.65
2023-04-07T12:50:56.063Z,26.63
2023-04-07T12:51:56.134Z,26.63
2023-04-07T12:52:56.182Z,26.65